San Francisco, CA

5:57 PM PDT on August 31, 2015 (GMT -0700)
Forest Hill | | Change Station
CLOSE
Current Station
Personal Weather Station
Location: San Francisco, CA
Elevation: 510 ft
Nearby Weather Stations

Elev 510 ft 37.75 °N, 122.47 °W | Updated 8 seconds ago

Partly Cloudy
Partly Cloudy
66.4 °F
Feels Like 66.4 °F
N
0.0
Wind Variable Wind from SSE
Gusts 1.0 mph

Today
High -- | Low -- °F
--% Chance of Precip.
Yesterday
High -- | Low -- °F
Precip. -- in
6:38 AM 7:40 PM
Waning Gibbous, 92% visible
Pressure 29.88 in
Visibility 10.0 miles
Clouds Few 1300 ft
Dew Point 59 °F
Humidity 78%
Rainfall 0.00 in
Snow Depth Not available.
UV 3 out of 12
Pollen 6.60 out of 12
Air Quality Not available.
Flu Activity Not available.
METAR KSFO 312356Z 27019KT 10SM FEW013 22/14 A2988 RMK AO2 SLP118 T02170139 10244 20206 56009
Pressure 29.88 in
Visibility 10.0 miles
Clouds Few 1300 ft
Dew Point 59 °F
Humidity 78%
Rainfall 0.00 in
Snow Depth Not available.
UV 3 out of 12
Pollen 6.60 out of 12
Air Quality Not available.
Flu Activity Not available.
METAR KSFO 312356Z 27019KT 10SM FEW013 22/14 A2988 RMK AO2 SLP118 T02170139 10244 20206 56009

10-Day Weather Forecast

×

Almanac

Astronomy

Aug. 31, 2015 Rise Set
Actual Time
Civil Twilight
Nautical Twilight
Astronomical Twilight
Moon
Length of Visible Light
Length of Day
Tomorrow will be .
, % of the Moon is Illuminated

Today's Extremes

State Highs State Lows

Community

WunderPhotos

Upload Photos

1,851,411 photos uploaded!

WunderBlogs® & News

Nearby

Air Quality

  Air Quality AQ Index Pollutant
Not available.

Snow Depth

Station Depth Elevation

Earthquake Activity

City Distance Mag. Time & Date
Minimum magnitude displayed is 2.5.

Coastal Water Temperatures

Place Temperature

Stations

Nearby Weather Stations

Station Location Temp. Windchill Dew Point Humidity Wind Precip. Elev Updated Type